createdAt,value
2024-04-21T00:04:44.281Z,135.23
2024-04-21T00:09:53.120Z,123.97
2024-04-21T00:14:59.166Z,114.47
2024-04-21T00:20:06.396Z,118.50
2024-04-21T00:25:15.127Z,109.43
2024-04-21T00:30:21.262Z,86.07
2024-04-21T00:35:27.257Z,85.30
2024-04-21T00:40:35.945Z,41.78
2024-04-21T00:45:44.639Z,49.97
2024-04-21T00:50:52.516Z,47.38
2024-04-21T00:56:02.168Z,51.63
2024-04-21T01:01:08.794Z,45.17
2024-04-21T01:06:15.020Z,46.80
2024-04-21T01:11:24.380Z,38.75
2024-04-21T01:16:30.637Z,39.05
2024-04-21T01:21:36.650Z,41.47
2024-04-21T01:26:45.208Z,30.95
2024-04-21T01:31:51.548Z,36.97
2024-04-21T01:36:57.504Z,44.28
2024-04-21T01:42:06.294Z,38.33
2024-04-21T01:47:12.359Z,35.50
2024-04-21T01:52:18.954Z,43.40
2024-04-21T01:57:27.580Z,33.65
2024-04-21T02:02:33.501Z,33.72
2024-04-21T02:07:39.569Z,44.03
2024-04-21T02:12:48.179Z,31.67
2024-04-21T02:17:54.199Z,52.00
2024-04-21T02:23:00.319Z,38.80
2024-04-21T02:28:09.459Z,59.10
2024-04-21T02:33:15.503Z,32.80
2024-04-21T02:38:21.618Z,37.33
2024-04-21T02:43:30.293Z,41.47
2024-04-21T02:48:36.402Z,38.65
2024-04-21T02:53:42.454Z,33.67
2024-04-21T02:58:51.046Z,32.97
2024-04-21T03:03:57.255Z,31.73
2024-04-21T03:09:03.309Z,29.30
2024-04-21T03:14:12.044Z,27.65
2024-04-21T03:19:18.149Z,28.00
2024-04-21T03:24:24.449Z,25.38
2024-04-21T03:29:33.047Z,22.95
2024-04-21T03:34:38.981Z,26.08
2024-04-21T03:39:45.132Z,24.73
2024-04-21T03:44:53.830Z,27.33
2024-04-21T03:49:59.825Z,22.83
2024-04-21T03:55:05.991Z,25.90
2024-04-21T04:00:18.683Z,24.73
2024-04-21T04:05:27.307Z,21.23
2024-04-21T04:10:39.722Z,24.08
2024-04-21T04:15:50.124Z,26.83
2024-04-21T04:20:56.142Z,30.58
2024-04-21T04:26:11.437Z,21.35
2024-04-21T04:31:23.414Z,25.25
2024-04-21T04:36:29.691Z,23.13
2024-04-21T04:41:46.439Z,21.20
2024-04-21T04:47:05.997Z,20.23
2024-04-21T04:52:13.341Z,17.17
2024-04-21T04:57:19.400Z,19.38
2024-04-21T05:02:28.272Z,18.10
2024-04-21T05:07:35.216Z,16.48
2024-04-21T05:12:42.410Z,17.27
2024-04-21T05:17:51.726Z,18.00
2024-04-21T05:22:57.797Z,19.30
2024-04-21T05:28:03.857Z,14.48
2024-04-21T05:33:12.633Z,16.48
2024-04-21T05:38:18.784Z,16.88
2024-04-21T05:43:25.003Z,15.93
2024-04-21T05:48:34.187Z,15.57
2024-04-21T05:53:40.671Z,13.40
2024-04-21T05:58:46.760Z,17.88
2024-04-21T06:03:55.585Z,27.70
2024-04-21T06:09:01.699Z,26.02
2024-04-21T06:14:11.273Z,24.60
2024-04-21T06:19:22.488Z,22.40
2024-04-21T06:24:28.486Z,27.60
2024-04-21T06:29:34.641Z,23.02
2024-04-21T06:34:43.388Z,28.77
2024-04-21T06:39:49.626Z,27.40
2024-04-21T06:44:57.765Z,26.52
2024-04-21T06:50:14.771Z,26.23
2024-04-21T06:55:20.945Z,23.08
2024-04-21T07:00:27.153Z,25.35
2024-04-21T07:05:35.900Z,24.15
2024-04-21T07:10:42.141Z,20.38
2024-04-21T07:15:48.323Z,16.48
2024-04-21T07:20:57.088Z,16.55
2024-04-21T07:26:05.329Z,18.13
2024-04-21T07:31:11.217Z,16.23
2024-04-21T07:36:19.939Z,14.73
2024-04-21T07:41:26.352Z,15.40
2024-04-21T07:46:32.266Z,13.98
2024-04-21T07:51:40.991Z,13.68
2024-04-21T07:56:48.849Z,17.45
2024-04-21T08:01:54.972Z,17.20
2024-04-21T08:07:03.996Z,21.23
2024-04-21T08:12:10.920Z,19.08
2024-04-21T08:17:17.161Z,24.13
2024-04-21T08:22:25.857Z,19.02
2024-04-21T08:27:31.898Z,18.17
2024-04-21T08:32:38.083Z,18.80
2024-04-21T08:37:46.790Z,18.08
2024-04-21T08:42:57.687Z,20.05
2024-04-21T08:48:04.078Z,20.17
2024-04-21T08:53:13.062Z,24.48
2024-04-21T08:58:20.530Z,20.00
2024-04-21T09:03:27.236Z,22.48
2024-04-21T09:08:36.441Z,17.13
2024-04-21T09:13:42.740Z,20.17
2024-04-21T09:18:49.077Z,16.08
2024-04-21T09:23:59.353Z,17.25
2024-04-21T09:29:06.280Z,19.63
2024-04-21T09:34:12.471Z,11.75
2024-04-21T09:39:21.663Z,14.07
2024-04-21T09:44:29.864Z,15.93
2024-04-21T09:49:38.327Z,14.77
2024-04-21T09:54:47.900Z,16.58
2024-04-21T10:00:03.027Z,16.05
2024-04-21T10:05:16.574Z,12.68
2024-04-21T10:10:25.899Z,12.10
2024-04-21T10:15:33.842Z,15.75
2024-04-21T10:20:43.620Z,14.30
2024-04-21T10:25:55.461Z,14.95
2024-04-21T10:31:08.404Z,11.05
2024-04-21T10:36:22.229Z,11.85
2024-04-21T10:41:34.207Z,13.70
2024-04-21T10:46:40.116Z,11.90
2024-04-21T10:51:46.196Z,17.60
2024-04-21T10:57:02.801Z,22.73
2024-04-21T11:02:09.364Z,21.23
2024-04-21T11:07:15.585Z,25.85
2024-04-21T11:12:24.718Z,23.85
2024-04-21T11:17:31.660Z,25.35
2024-04-21T11:22:37.749Z,23.67
2024-04-21T11:27:46.875Z,20.30
2024-04-21T11:32:56.836Z,20.60
2024-04-21T11:38:21.072Z,22.65
2024-04-21T11:43:30.344Z,22.88
2024-04-21T11:48:37.876Z,21.33
2024-04-21T11:53:44.664Z,23.90
2024-04-21T11:58:53.695Z,22.70
2024-04-21T12:04:00.530Z,23.15
2024-04-21T12:09:09.933Z,24.42
2024-04-21T12:14:34.415Z,23.85
2024-04-21T12:19:40.695Z,20.10
2024-04-21T12:24:46.970Z,27.05
2024-04-21T12:29:56.172Z,23.85
2024-04-21T12:35:02.294Z,22.90
2024-04-21T12:40:10.237Z,19.35
2024-04-21T12:45:18.919Z,18.63
2024-04-21T12:50:26.495Z,17.65
2024-04-21T12:55:32.854Z,20.30
2024-04-21T13:00:42.034Z,17.35
2024-04-21T13:05:48.565Z,21.42
2024-04-21T13:10:55.156Z,16.02
2024-04-21T13:16:04.596Z,15.93
2024-04-21T13:21:10.756Z,16.60
2024-04-21T13:26:17.076Z,20.98
2024-04-21T13:31:27.330Z,18.05
2024-04-21T13:36:39.286Z,13.48
2024-04-21T13:41:48.685Z,15.00
2024-04-21T13:46:57.847Z,15.90
2024-04-21T13:52:07.564Z,16.15
2024-04-21T13:57:16.385Z,16.42
2024-04-21T14:02:27.594Z,21.08
2024-04-21T14:07:33.765Z,13.68
2024-04-21T14:12:40.141Z,19.50
2024-04-21T14:17:49.312Z,15.05
2024-04-21T14:22:55.350Z,16.40
2024-04-21T14:28:02.006Z,14.32
2024-04-21T14:33:14.509Z,19.67
2024-04-21T14:38:24.568Z,14.18
2024-04-21T14:43:33.823Z,17.65
2024-04-21T14:48:43.184Z,17.60
2024-04-21T14:59:41.292Z,15.73
2024-04-21T15:04:50.021Z,16.75
2024-04-21T15:09:56.456Z,16.33
2024-04-21T15:15:02.386Z,15.88
2024-04-21T15:20:13.980Z,15.32
2024-04-21T15:25:21.488Z,15.15
2024-04-21T15:30:29.307Z,14.57
2024-04-21T15:35:40.483Z,19.42
2024-04-21T15:40:46.762Z,17.65
2024-04-21T15:45:52.872Z,20.40
2024-04-21T15:51:04.093Z,12.95
2024-04-21T15:56:10.603Z,15.43
2024-04-21T16:01:16.910Z,19.20
2024-04-21T16:06:25.710Z,14.65
2024-04-21T16:11:31.781Z,16.13
2024-04-21T16:16:40.642Z,12.25
2024-04-21T16:21:49.551Z,12.85
2024-04-21T16:26:55.899Z,14.50
2024-04-21T16:32:02.096Z,16.83
2024-04-21T16:37:14.100Z,15.27
2024-04-21T16:42:20.785Z,13.68
2024-04-21T16:47:32.325Z,17.92
2024-04-21T16:52:41.717Z,16.42
2024-04-21T16:57:56.229Z,21.10
2024-04-21T17:03:03.164Z,16.42
2024-04-21T17:08:26.657Z,20.85
2024-04-21T17:13:34.512Z,16.25
2024-04-21T17:18:43.066Z,16.25
2024-04-21T17:23:52.184Z,18.38
2024-04-21T17:29:13.397Z,16.85
2024-04-21T17:34:32.056Z,19.10
2024-04-21T17:39:43.374Z,16.13
2024-04-21T17:44:49.718Z,19.15
2024-04-21T17:49:56.295Z,15.38
2024-04-21T17:55:14.181Z,18.17
2024-04-21T18:00:25.063Z,18.88
2024-04-21T18:05:36.792Z,16.27
2024-04-21T18:18:44.921Z,17.10
2024-04-21T18:24:43.929Z,15.85
2024-04-21T18:30:00.756Z,14.80
2024-04-21T18:35:07.840Z,14.25
2024-04-21T18:40:17.430Z,15.75
2024-04-21T18:45:26.975Z,18.80
2024-04-21T18:50:33.722Z,23.23
2024-04-21T18:55:43.577Z,15.57
2024-04-21T19:00:52.841Z,13.50
2024-04-21T19:06:01.266Z,12.38
2024-04-21T19:11:11.690Z,18.88
2024-04-21T19:16:24.714Z,21.40
2024-04-21T19:21:31.958Z,16.92
2024-04-21T19:26:39.289Z,16.40
2024-04-21T19:31:48.381Z,14.20
2024-04-21T19:36:54.599Z,14.85
2024-04-21T19:42:00.789Z,15.23
2024-04-21T19:47:09.921Z,16.60
2024-04-21T19:52:16.199Z,15.32
2024-04-21T19:57:22.383Z,18.13
2024-04-21T20:02:32.479Z,14.90
2024-04-21T20:07:39.263Z,15.40
2024-04-21T20:12:45.471Z,15.38
2024-04-21T20:18:10.304Z,13.82
2024-04-21T20:23:16.647Z,14.23
2024-04-21T20:28:22.975Z,14.60
2024-04-21T20:33:31.855Z,14.77
2024-04-21T20:38:38.054Z,15.85
2024-04-21T20:43:44.216Z,14.20
2024-04-21T20:48:55.693Z,17.90
2024-04-21T20:54:04.693Z,15.65
2024-04-21T20:59:11.372Z,18.35
2024-04-21T21:04:20.730Z,14.68
2024-04-21T21:09:29.126Z,16.13
2024-04-21T21:14:37.790Z,18.55
2024-04-21T21:19:46.548Z,17.35
2024-04-21T21:24:53.006Z,21.00
2024-04-21T21:29:59.148Z,19.50
2024-04-21T21:35:09.028Z,22.95
2024-04-21T21:40:15.421Z,18.90
2024-04-21T21:45:21.466Z,21.73
2024-04-21T21:50:30.486Z,25.52
2024-04-21T21:55:36.687Z,26.30
2024-04-21T22:00:43.093Z,20.70
2024-04-21T22:05:52.072Z,19.13
2024-04-21T22:10:58.568Z,20.40
2024-04-21T22:16:07.463Z,20.95
2024-04-21T22:21:16.866Z,18.42
2024-04-21T22:26:22.911Z,15.02
2024-04-21T22:31:37.286Z,30.92
2024-04-21T22:36:51.830Z,18.15
2024-04-21T22:41:57.864Z,17.55
2024-04-21T22:47:04.440Z,17.02
2024-04-21T22:52:13.670Z,19.15
2024-04-21T22:57:19.644Z,15.23
2024-04-21T23:02:25.796Z,20.38
2024-04-21T23:07:34.495Z,17.00
2024-04-21T23:12:40.517Z,19.55
2024-04-21T23:17:46.594Z,19.15
2024-04-21T23:22:55.291Z,18.48
2024-04-21T23:28:01.367Z,17.45
2024-04-21T23:33:07.890Z,18.15
2024-04-21T23:38:16.675Z,20.38
2024-04-21T23:43:22.755Z,19.10
2024-04-21T23:48:29.446Z,26.15
2024-04-21T23:53:38.182Z,19.80
2024-04-21T23:58:44.335Z,21.58
